Time;durP1;ratioP1;P1;durP2;ratioP2;P2;SDS_P1;SDS_P2;PMS_P1;PMS_P2;Temp;Humidity;BMP_temperature;BMP_pressure;BME280_temperature;BME280_humidity;BME280_pressure;Samples;Min_cycle;Max_cycle;Signal;HPM_P1;HPM_P2
2023/12/15 00:01:44;;;;;;;29.60;11.00;;;;;;;0.65;100.00;102478.16;7392908;19;20411;-45
2023/12/15 00:04:14;;;;;;;30.37;11.33;;;;;;;0.67;100.00;102474.13;7397523;19;20407;-44
2023/12/15 00:06:44;;;;;;;26.53;11.07;;;;;;;0.69;100.00;102474.31;7375761;19;20424;-44
2023/12/15 00:09:15;;;;;;;32.77;11.00;;;;;;;0.71;100.00;102480.44;7396444;19;20451;-45
2023/12/15 00:11:47;;;;;;;29.73;12.20;;;;;;;0.71;100.00;102484.66;7373259;19;20414;-44
2023/12/15 00:14:17;;;;;;;32.17;12.33;;;;;;;0.71;100.00;102484.66;7395062;19;20491;-43
2023/12/15 00:16:49;;;;;;;28.33;12.17;;;;;;;0.72;100.00;102492.41;7375432;19;20399;-48
2023/12/15 00:19:19;;;;;;;26.63;11.57;;;;;;;0.70;100.00;102490.44;7395713;19;20967;-43
2023/12/15 00:21:49;;;;;;;27.43;11.87;;;;;;;0.72;100.00;102494.06;7374774;19;20415;-44
2023/12/15 00:24:19;;;;;;;25.60;11.53;;;;;;;0.74;100.00;102502.75;7395805;19;20471;-50
2023/12/15 00:26:48;;;;;;;29.67;13.10;;;;;;;0.75;100.00;102507.09;7375731;19;20851;-46
2023/12/15 00:29:18;;;;;;;32.03;12.00;;;;;;;0.77;100.00;102510.72;7395794;19;20452;-49
2023/12/15 00:31:51;;;;;;;31.33;14.00;;;;;;;0.79;100.00;102517.78;7374450;19;20390;-48
2023/12/15 00:34:20;;;;;;;25.97;11.60;;;;;;;0.82;100.00;102531.56;7395682;19;21076;-45
2023/12/15 00:36:50;;;;;;;31.17;12.30;;;;;;;0.82;100.00;102521.41;7375063;19;20392;-49
2023/12/15 00:39:20;;;;;;;33.40;13.37;;;;;;;0.83;100.00;102521.56;7396379;19;20899;-45
2023/12/15 00:41:50;;;;;;;33.97;13.87;;;;;;;0.86;100.00;102524.44;7373588;19;20408;-47
2023/12/15 00:44:19;;;;;;;31.90;13.40;;;;;;;0.94;100.00;102522.75;7395250;19;20407;-44
2023/12/15 00:46:52;;;;;;;30.80;13.10;;;;;;;0.96;100.00;102518.72;7374862;19;20448;-45
2023/12/15 00:49:22;;;;;;;39.57;13.70;;;;;;;1.03;100.00;102520.31;7395657;19;20438;-45
2023/12/15 00:51:51;;;;;;;39.60;13.77;;;;;;;0.98;100.00;102519.81;7374734;19;20407;-49
2023/12/15 00:54:21;;;;;;;33.83;12.93;;;;;;;1.01;100.00;102524.28;7397538;19;20407;-46
2023/12/15 00:56:51;;;;;;;29.50;12.50;;;;;;;1.02;100.00;102526.13;7374451;19;20407;-46
2023/12/15 00:59:21;;;;;;;34.97;13.90;;;;;;;1.00;100.00;102522.50;7395751;19;20498;-46
2023/12/15 01:01:53;;;;;;;36.47;14.33;;;;;;;0.98;100.00;102519.81;7374127;19;20407;-47
2023/12/15 01:04:23;;;;;;;35.97;13.47;;;;;;;1.01;100.00;102519.22;7395383;19;20416;-47
2023/12/15 01:06:53;;;;;;;29.80;13.60;;;;;;;1.05;100.00;102527.34;7375974;19;21230;-44
2023/12/15 01:09:23;;;;;;;33.93;12.77;;;;;;;1.04;100.00;102530.59;7394008;19;20447;-43
2023/12/15 01:11:52;;;;;;;37.73;13.37;;;;;;;1.03;100.00;102522.84;7373246;19;21034;-47
2023/12/15 01:14:22;;;;;;;37.63;14.33;;;;;;;1.04;100.00;102515.34;7398639;19;20757;-46
2023/12/15 01:16:54;;;;;;;42.90;13.60;;;;;;;1.08;100.00;102519.16;7373926;19;20975;-44
2023/12/15 01:19:24;;;;;;;35.57;12.90;;;;;;;1.07;100.00;102519.88;7394322;19;20435;-47
2023/12/15 01:21:54;;;;;;;39.13;12.70;;;;;;;1.06;100.00;102536.78;7373591;19;20467;-46
2023/12/15 01:24:24;;;;;;;33.40;13.00;;;;;;;1.14;100.00;102532.53;7394445;19;20407;-45
2023/12/15 01:26:54;;;;;;;33.43;13.60;;;;;;;1.17;100.00;102522.69;7374136;19;20492;-47
2023/12/15 01:29:23;;;;;;;37.03;13.47;;;;;;;1.12;100.00;102530.56;7394048;19;20443;-46
2023/12/15 01:31:58;;;;;;;31.63;13.57;;;;;;;1.12;100.00;102522.94;7373666;19;20428;-45
2023/12/15 01:34:28;;;;;;;30.20;13.30;;;;;;;1.13;100.00;102525.63;7393583;19;20764;-45
2023/12/15 01:36:57;;;;;;;35.93;12.90;;;;;;;1.14;100.00;102530.00;7374157;19;20813;-44
2023/12/15 01:39:28;;;;;;;31.43;12.70;;;;;;;1.15;100.00;102529.25;7393802;19;20439;-47
2023/12/15 01:41:57;;;;;;;30.47;13.00;;;;;;;1.15;100.00;102516.53;7372185;19;20412;-44
2023/12/15 01:44:27;;;;;;;31.17;12.30;;;;;;;1.17;100.00;102517.59;7395725;19;20382;-49
2023/12/15 01:46:59;;;;;;;32.87;13.57;;;;;;;1.20;100.00;102512.88;7373522;19;20785;-47
2023/12/15 01:49:30;;;;;;;28.87;12.20;;;;;;;1.19;100.00;102513.56;7392932;19;20519;-44
2023/12/15 01:51:59;;;;;;;31.70;13.30;;;;;;;1.21;100.00;102509.56;7375813;19;20411;-45
2023/12/15 01:54:29;;;;;;;33.67;14.00;;;;;;;1.25;100.00;102505.72;7394277;19;20499;-48
2023/12/15 01:56:59;;;;;;;39.40;13.40;;;;;;;1.34;100.00;102510.91;7373823;19;20407;-47
2023/12/15 01:59:28;;;;;;;35.13;13.17;;;;;;;1.32;100.00;102495.47;7393076;19;20440;-47
2023/12/15 02:02:01;;;;;;;40.33;13.57;;;;;;;1.36;100.00;102489.06;7373359;19;20415;-45
2023/12/15 02:04:30;;;;;;;33.77;12.43;;;;;;;1.35;100.00;102477.97;7395153;19;20420;-47
2023/12/15 02:07:00;;;;;;;33.90;12.60;;;;;;;1.35;100.00;102472.00;7373172;19;20407;-47
2023/12/15 02:09:30;;;;;;;37.10;13.60;;;;;;;1.37;100.00;102470.50;7393463;19;20519;-44
2023/12/15 02:12:00;;;;;;;34.13;12.63;;;;;;;1.42;100.00;102469.38;7373117;19;20444;-44
2023/12/15 02:14:30;;;;;;;39.90;12.97;;;;;;;1.44;100.00;102462.78;7393928;19;20828;-44
2023/12/15 02:17:02;;;;;;;31.20;12.60;;;;;;;1.45;100.00;102454.41;7372525;19;20383;-46
2023/12/15 02:19:32;;;;;;;32.60;12.13;;;;;;;1.48;100.00;102443.66;7389691;19;20439;-45
2023/12/15 02:22:02;;;;;;;34.93;13.60;;;;;;;1.53;100.00;102423.81;7372524;19;20401;-47
2023/12/15 02:24:34;;;;;;;36.17;14.27;;;;;;;1.54;100.00;102423.06;7393261;19;20479;-46
2023/12/15 02:27:04;;;;;;;33.20;11.90;;;;;;;1.54;100.00;102418.84;7372981;19;20403;-45
2023/12/15 02:29:34;;;;;;;37.67;14.57;;;;;;;1.58;100.00;102415.00;7393240;19;20469;-43
2023/12/15 02:32:04;;;;;;;34.17;13.40;;;;;;;1.57;100.00;102396.31;7373165;19;20740;-46
2023/12/15 02:34:34;;;;;;;32.27;12.00;;;;;;;1.57;100.00;102386.13;7392553;19;20423;-43
2023/12/15 02:37:04;;;;;;;32.70;13.40;;;;;;;1.63;100.00;102369.69;7373500;19;20420;-43
2023/12/15 02:39:36;;;;;;;33.10;12.33;;;;;;;1.64;100.00;102384.22;7392453;19;20964;-44
2023/12/15 02:42:06;;;;;;;35.63;13.80;;;;;;;1.66;100.00;102365.81;7370031;19;20479;-46
2023/12/15 02:44:36;;;;;;;33.90;13.37;;;;;;;1.69;100.00;102353.41;7392534;19;20410;-43
2023/12/15 02:47:06;;;;;;;35.97;13.90;;;;;;;1.69;100.00;102343.22;7373911;19;20395;-44
2023/12/15 02:49:40;;;;;;;32.33;13.23;;;;;;;1.74;100.00;102331.88;7386856;19;20426;-46
2023/12/15 02:52:10;;;;;;;29.13;11.23;;;;;;;1.71;100.00;102316.31;7371741;19;20488;-43
2023/12/15 02:54:42;;;;;;;27.90;12.57;;;;;;;1.72;100.00;102297.75;7394490;19;20383;-45
2023/12/15 02:57:12;;;;;;;28.37;12.33;;;;;;;1.77;100.00;102284.56;7371752;19;20477;-46
2023/12/15 02:59:42;;;;;;;22.03;8.73;;;;;;;1.78;100.00;102271.13;7392521;19;20447;-43
2023/12/15 03:02:11;;;;;;;37.00;13.60;;;;;;;1.83;100.00;102260.66;7372569;19;20494;-43
2023/12/15 03:04:41;;;;;;;31.10;13.00;;;;;;;1.82;100.00;102251.22;7394282;19;20782;-45
2023/12/15 03:07:11;;;;;;;32.80;13.20;;;;;;;1.87;100.00;102231.31;7372720;19;20497;-46
2023/12/15 03:09:43;;;;;;;29.97;11.87;;;;;;;1.93;100.00;102231.00;7391492;19;21146;-44
2023/12/15 03:12:13;;;;;;;29.93;12.27;;;;;;;1.91;100.00;102212.16;7370237;19;20422;-44
2023/12/15 03:14:43;;;;;;;33.60;14.07;;;;;;;1.91;100.00;102212.16;7391755;19;20943;-45
2023/12/15 03:17:13;;;;;;;32.40;13.20;;;;;;;1.92;100.00;102202.13;7372160;19;20547;-45
2023/12/15 03:19:43;;;;;;;30.20;10.27;;;;;;;1.92;100.00;102199.59;7390892;19;20499;-44
2023/12/15 03:22:13;;;;;;;29.10;11.60;;;;;;;1.95;100.00;102196.44;7372041;19;20419;-45
2023/12/15 03:24:45;;;;;;;28.50;11.00;;;;;;;1.95;100.00;102178.63;7392803;19;20399;-45
2023/12/15 03:27:15;;;;;;;27.27;11.60;;;;;;;1.96;100.00;102176.25;7369325;19;20486;-47
2023/12/15 03:29:45;;;;;;;29.10;11.37;;;;;;;1.97;100.00;102157.66;7391350;19;20442;-49
2023/12/15 03:32:15;;;;;;;26.20;11.87;;;;;;;2.00;100.00;102152.84;7374231;19;20502;-50
2023/12/15 03:34:45;;;;;;;28.50;11.10;;;;;;;2.01;100.00;102144.47;7396128;19;20400;-46
2023/12/15 03:37:14;;;;;;;27.70;11.43;;;;;;;2.01;100.00;102143.59;7376998;19;20843;-45
2023/12/15 03:39:46;;;;;;;36.50;14.10;;;;;;;2.04;100.00;102132.81;7396895;19;20439;-45
2023/12/15 03:42:16;;;;;;;30.00;13.17;;;;;;;2.00;100.00;102134.16;7373485;19;20424;-47
2023/12/15 03:44:46;;;;;;;29.70;12.20;;;;;;;1.98;100.00;102133.09;7400216;19;20436;-50
2023/12/15 03:47:16;;;;;;;34.63;14.43;;;;;;;1.99;100.00;102130.69;7374806;19;20844;-49
2023/12/15 03:49:45;;;;;;;30.70;12.10;;;;;;;2.00;100.00;102131.63;7396711;19;20869;-49
2023/12/15 03:52:15;;;;;;;33.97;11.63;;;;;;;1.99;100.00;102135.78;7370741;19;20411;-49
2023/12/15 03:54:47;;;;;;;39.03;17.07;;;;;;;2.04;100.00;102136.25;7401522;19;20399;-47
2023/12/15 03:57:17;;;;;;;35.33;13.30;;;;;;;2.05;100.00;102134.59;7374555;19;20852;-45
2023/12/15 03:59:46;;;;;;;34.37;13.30;;;;;;;2.06;100.00;102127.13;7397293;19;20805;-43
2023/12/15 04:02:16;;;;;;;37.17;14.27;;;;;;;2.05;100.00;102127.84;7375351;19;20423;-44
2023/12/15 04:04:46;;;;;;;34.83;13.67;;;;;;;2.01;100.00;102124.09;7399637;19;20784;-48
2023/12/15 04:07:15;;;;;;;37.23;13.97;;;;;;;2.03;100.00;102126.81;7374972;19;20415;-44
2023/12/15 04:09:47;;;;;;;35.00;14.13;;;;;;;2.04;100.00;102120.97;7396595;19;21046;-44
2023/12/15 04:12:17;;;;;;;40.73;14.83;;;;;;;2.08;100.00;102119.59;7373246;19;20415;-44
2023/12/15 04:14:47;;;;;;;38.67;14.80;;;;;;;2.07;100.00;102125.47;7400819;19;20414;-43
2023/12/15 04:17:17;;;;;;;38.67;15.03;;;;;;;2.04;100.00;102128.59;7376181;19;20427;-47
2023/12/15 04:19:46;;;;;;;36.40;13.37;;;;;;;2.04;100.00;102136.25;7396381;19;20439;-45
2023/12/15 04:22:16;;;;;;;33.57;13.80;;;;;;;2.02;100.00;102146.25;7374068;19;20428;-45
2023/12/15 04:24:48;;;;;;;30.30;10.47;;;;;;;2.05;100.00;102162.59;7396899;19;20419;-48
2023/12/15 04:27:18;;;;;;;37.77;13.03;;;;;;;2.01;100.00;102186.88;7377146;19;20415;-45
2023/12/15 04:29:47;;;;;;;34.83;12.67;;;;;;;2.00;100.00;102200.34;7396698;19;20468;-44
2023/12/15 04:32:17;;;;;;;38.30;12.60;;;;;;;2.01;100.00;102223.41;7375567;19;20423;-46
2023/12/15 04:34:47;;;;;;;43.63;16.50;;;;;;;2.01;100.00;102247.97;7396824;19;20407;-44
2023/12/15 04:37:16;;;;;;;40.90;13.60;;;;;;;1.98;100.00;102285.84;7373270;19;20426;-43
2023/12/15 04:39:49;;;;;;;41.03;16.10;;;;;;;1.99;100.00;102314.00;7396044;19;20439;-45
2023/12/15 04:42:19;;;;;;;42.93;14.90;;;;;;;2.01;100.00;102343.06;7369781;19;20415;-43
2023/12/15 04:44:48;;;;;;;30.13;12.27;;;;;;;1.98;100.00;102367.31;7396428;19;20408;-43
2023/12/15 04:47:18;;;;;;;41.40;14.67;;;;;;;2.05;100.00;102409.59;7374870;19;21316;-45
2023/12/15 04:49:48;;;;;;;58.43;20.00;;;;;;;2.10;100.00;102431.34;7396469;19;20443;-44
2023/12/15 04:52:18;;;;;;;28.57;11.33;;;;;;;2.07;100.00;102471.78;7373077;19;20504;-44
2023/12/15 04:54:50;;;;;;;44.93;16.13;;;;;;;2.08;100.00;102494.84;7396263;19;20420;-43
2023/12/15 04:57:20;;;;;;;31.00;13.27;;;;;;;2.09;100.00;102522.13;7375449;19;20447;-44
2023/12/15 04:59:52;;;;;;;44.03;15.20;;;;;;;2.12;100.00;102542.84;7396248;19;20443;-43
2023/12/15 05:02:21;;;;;;;53.33;16.63;;;;;;;2.14;100.00;102560.78;7370069;19;20797;-46
2023/12/15 05:04:51;;;;;;;51.00;17.43;;;;;;;2.13;100.00;102571.72;7396949;19;20400;-46
2023/12/15 05:07:21;;;;;;;46.60;17.43;;;;;;;2.11;100.00;102583.41;7374222;19;20434;-43
2023/12/15 05:09:53;;;;;;;40.77;13.47;;;;;;;2.12;100.00;102621.78;7395763;19;20451;-45
2023/12/15 05:12:22;;;;;;;43.30;15.53;;;;;;;2.14;100.00;102637.19;7372425;19;20419;-44
2023/12/15 05:14:52;;;;;;;58.27;20.03;;;;;;;2.18;100.00;102652.09;7397945;19;20411;-43
2023/12/15 05:17:22;;;;;;;47.03;17.07;;;;;;;2.14;100.00;102647.38;7373153;19;20419;-42
2023/12/15 05:19:55;;;;;;;41.37;16.83;;;;;;;2.17;100.00;102665.56;7394225;19;20431;-42
2023/12/15 05:22:25;;;;;;;38.80;15.27;;;;;;;2.19;100.00;102679.34;7374254;19;20821;-43
2023/12/15 05:24:57;;;;;;;42.47;16.73;;;;;;;2.18;100.00;102697.94;7395910;19;20396;-43
2023/12/15 05:27:26;;;;;;;40.67;16.07;;;;;;;2.19;100.00;102707.38;7369488;19;20427;-46
2023/12/15 05:29:56;;;;;;;37.93;14.73;;;;;;;2.18;100.00;102725.03;7394033;19;20997;-44
2023/12/15 05:32:25;;;;;;;45.13;16.97;;;;;;;2.22;100.00;102739.91;7372554;19;20431;-47
2023/12/15 05:34:55;;;;;;;46.17;16.67;;;;;;;2.24;100.00;102754.63;7397069;19;20403;-43
2023/12/15 05:37:25;;;;;;;45.70;15.03;;;;;;;2.23;100.00;102757.91;7371871;19;20447;-45
2023/12/15 05:39:57;;;;;;;40.17;14.73;;;;;;;2.26;100.00;102768.44;7393294;19;21100;-47
2023/12/15 05:42:27;;;;;;;44.50;15.90;;;;;;;2.25;100.00;102768.28;7371825;19;20420;-44
2023/12/15 05:44:57;;;;;;;50.90;16.57;;;;;;;2.23;100.00;102765.56;7394084;19;20431;-45
2023/12/15 05:47:26;;;;;;;60.03;20.50;;;;;;;2.24;100.00;102769.91;7372276;19;20411;-44
2023/12/15 05:49:56;;;;;;;34.17;14.53;;;;;;;2.26;100.00;102778.63;7394898;19;20475;-44
2023/12/15 05:52:26;;;;;;;45.37;15.40;;;;;;;2.28;100.00;102774.63;7372006;19;20871;-45
2023/12/15 05:54:58;;;;;;;51.37;19.50;;;;;;;2.35;100.00;102782.91;7394002;19;20418;-47
2023/12/15 05:57:28;;;;;;;60.00;20.33;;;;;;;2.35;100.00;102785.47;7370413;19;20469;-45
2023/12/15 05:59:58;;;;;;;54.70;17.70;;;;;;;2.34;100.00;102792.19;7393624;19;20519;-45
2023/12/15 06:02:27;;;;;;;52.30;15.80;;;;;;;2.34;100.00;102781.06;7372228;19;20961;-43
2023/12/15 06:04:58;;;;;;;50.40;18.50;;;;;;;2.36;100.00;102792.38;7396117;19;20404;-43
2023/12/15 06:07:31;;;;;;;48.73;19.00;;;;;;;2.34;100.00;102788.72;7370838;19;20430;-44
2023/12/15 06:10:03;;;;;;;47.30;18.30;;;;;;;2.39;100.00;102785.03;7393770;19;20443;-48
2023/12/15 06:12:33;;;;;;;47.17;17.80;;;;;;;2.35;100.00;102795.66;7367879;19;20416;-44
2023/12/15 06:15:02;;;;;;;79.73;27.37;;;;;;;2.41;100.00;102789.56;7393583;19;20483;-44
2023/12/15 06:17:32;;;;;;;51.53;18.00;;;;;;;2.41;100.00;102793.78;7370702;19;21306;-45
2023/12/15 06:20:02;;;;;;;59.03;18.07;;;;;;;2.38;100.00;102799.44;7393004;19;20788;-45
2023/12/15 06:22:32;;;;;;;72.53;25.90;;;;;;;2.41;100.00;102812.50;7371643;19;20431;-44
2023/12/15 06:25:05;;;;;;;58.87;20.60;;;;;;;2.46;100.00;102819.75;7394839;19;20403;-44
2023/12/15 06:27:34;;;;;;;65.43;21.70;;;;;;;2.48;100.00;102816.63;7372249;19;20837;-42
2023/12/15 06:30:05;;;;;;;79.10;20.23;;;;;;;2.45;100.00;102815.38;7392933;19;20435;-42
2023/12/15 06:32:35;;;;;;;62.50;19.90;;;;;;;2.51;100.00;102816.03;7372444;19;20416;-43
2023/12/15 06:35:05;;;;;;;60.17;18.30;;;;;;;2.50;100.00;102819.31;7395062;19;20407;-45
2023/12/15 06:37:35;;;;;;;59.73;20.90;;;;;;;2.48;100.00;102821.72;7372545;19;20429;-44
2023/12/15 06:40:09;;;;;;;97.47;32.00;;;;;;;2.53;100.00;102812.94;7392782;19;20435;-42
2023/12/15 06:42:39;;;;;;;66.03;20.77;;;;;;;2.56;100.00;102808.13;7369214;19;20490;-45
2023/12/15 06:45:10;;;;;;;68.37;24.60;;;;;;;2.55;100.00;102803.78;7394335;19;20414;-43
2023/12/15 06:47:40;;;;;;;99.33;32.40;;;;;;;2.56;100.00;102800.50;7370729;19;20864;-43
2023/12/15 06:50:11;;;;;;;75.57;22.57;;;;;;;2.57;100.00;102806.50;7392709;19;20493;-46
2023/12/15 06:52:40;;;;;;;58.70;21.97;;;;;;;2.58;100.00;102799.75;7364256;19;20447;-41
2023/12/15 06:55:13;;;;;;;73.07;23.37;;;;;;;2.65;100.00;102794.56;7390737;19;20415;-39
2023/12/15 06:57:42;;;;;;;56.07;18.90;;;;;;;2.60;100.00;102806.81;7370447;19;20423;-40
2023/12/15 07:00:13;;;;;;;64.20;20.40;;;;;;;2.64;100.00;102797.84;7391877;19;20403;-39
2023/12/15 07:02:43;;;;;;;79.73;21.20;;;;;;;2.58;100.00;102795.56;7370179;19;20423;-40
2023/12/15 07:05:13;;;;;;;64.40;20.80;;;;;;;2.65;100.00;102792.00;7392776;19;20432;-39
2023/12/15 07:07:43;;;;;;;76.43;23.07;;;;;;;2.68;100.00;102789.81;7369196;19;20427;-39
2023/12/15 07:10:16;;;;;;;70.43;21.50;;;;;;;2.67;100.00;102791.44;7391902;19;20404;-40
2023/12/15 07:12:46;;;;;;;66.40;19.30;;;;;;;2.70;100.00;102785.75;7367396;19;20877;-40
2023/12/15 07:15:15;;;;;;;111.17;31.13;;;;;;;2.73;100.00;102768.25;7392187;19;20403;-39
2023/12/15 07:17:45;;;;;;;71.33;21.90;;;;;;;2.73;100.00;102764.78;7369627;19;20490;-40
2023/12/15 07:20:15;;;;;;;62.33;17.47;;;;;;;2.72;100.00;102765.53;7391305;19;20784;-40
2023/12/15 07:22:45;;;;;;;83.53;22.03;;;;;;;2.75;100.00;102760.75;7370034;19;20438;-40
2023/12/15 07:25:17;;;;;;;101.60;29.00;;;;;;;2.80;100.00;102765.63;7391964;19;20826;-40
2023/12/15 07:27:47;;;;;;;78.20;21.30;;;;;;;2.85;100.00;102763.53;7362640;19;20851;-41
2023/12/15 07:30:17;;;;;;;64.40;19.57;;;;;;;2.87;100.00;102756.94;7390964;19;20943;-40
2023/12/15 07:32:46;;;;;;;73.33;22.50;;;;;;;2.84;100.00;102752.41;7370287;19;20443;-39
2023/12/15 07:35:16;;;;;;;71.87;21.57;;;;;;;2.86;100.00;102739.84;7393278;19;20411;-39
2023/12/15 07:38:00;;;;;;;72.13;21.17;;;;;;;2.88;100.00;102740.00;7370996;19;20783;-41
2023/12/15 07:40:33;;;;;;;71.87;21.13;;;;;;;2.89;100.00;102741.81;7389178;19;20955;-40
2023/12/15 07:43:02;;;;;;;75.97;22.20;;;;;;;2.93;100.00;102731.19;7368419;19;20434;-40
2023/12/15 07:45:32;;;;;;;61.23;19.27;;;;;;;2.95;100.00;102714.41;7390815;19;20487;-39
2023/12/15 07:48:02;;;;;;;89.27;24.07;;;;;;;2.95;100.00;102716.94;7369379;19;20447;-39
2023/12/15 07:50:32;;;;;;;87.47;23.97;;;;;;;3.00;100.00;102719.97;7390313;19;20963;-39
2023/12/15 07:53:01;;;;;;;83.50;26.07;;;;;;;2.97;100.00;102718.00;7368475;19;20468;-41
2023/12/15 07:55:34;;;;;;;102.77;23.60;;;;;;;3.00;100.00;102718.34;7391127;19;20403;-39
2023/12/15 07:58:03;;;;;;;81.93;22.87;;;;;;;3.02;100.00;102715.97;7369960;19;20441;-40
2023/12/15 08:00:33;;;;;;;90.20;25.17;;;;;;;3.05;100.00;102716.25;7389371;19;20934;-39
2023/12/15 08:03:03;;;;;;;80.70;22.50;;;;;;;3.06;100.00;102716.44;7368619;19;20430;-39
2023/12/15 08:05:34;;;;;;;88.57;22.47;;;;;;;3.05;100.00;102706.97;7388106;19;20395;-40
2023/12/15 08:08:04;;;;;;;76.57;23.17;;;;;;;3.08;100.00;102694.53;7368978;19;20427;-39
2023/12/15 08:10:37;;;;;;;79.37;21.90;;;;;;;3.16;100.00;102696.97;7389957;19;20412;-39
2023/12/15 08:13:09;;;;;;;94.30;24.10;;;;;;;3.12;100.00;102699.97;7365931;19;20427;-39
2023/12/15 08:15:39;;;;;;;68.03;19.93;;;;;;;3.14;100.00;102695.91;7390482;19;20404;-40
2023/12/15 08:18:09;;;;;;;65.40;19.90;;;;;;;3.16;100.00;102679.09;7371072;19;20425;-40
2023/12/15 08:20:38;;;;;;;78.03;20.30;;;;;;;3.16;100.00;102679.09;7393452;19;20983;-39
2023/12/15 08:23:08;;;;;;;79.97;21.60;;;;;;;3.20;100.00;102686.34;7374988;19;20434;-40
2023/12/15 08:25:40;;;;;;;91.03;25.37;;;;;;;3.26;100.00;102686.97;7396706;19;20404;-42
2023/12/15 08:28:11;;;;;;;78.13;21.40;;;;;;;3.28;100.00;102682.03;7375098;19;20490;-39
2023/12/15 08:30:41;;;;;;;69.00;18.47;;;;;;;3.32;100.00;102689.22;7395946;19;20427;-40
2023/12/15 08:33:11;;;;;;;74.93;24.20;;;;;;;3.36;100.00;102699.94;7371119;19;20997;-40
2023/12/15 08:35:40;;;;;;;63.90;19.10;;;;;;;3.38;100.00;102713.75;7397575;19;20411;-40
2023/12/15 08:38:10;;;;;;;88.80;26.77;;;;;;;3.43;100.00;102718.41;7375350;19;20860;-40
2023/12/15 08:40:42;;;;;;;62.73;19.80;;;;;;;3.50;100.00;102719.19;7395713;19;20420;-40
2023/12/15 08:43:13;;;;;;;65.80;20.80;;;;;;;3.49;100.00;102732.69;7374431;19;20815;-40
2023/12/15 08:45:43;;;;;;;73.13;24.10;;;;;;;3.52;100.00;102739.75;7393071;19;20408;-40
2023/12/15 08:48:12;;;;;;;68.13;19.53;;;;;;;3.58;100.00;102742.06;7372910;19;21013;-40
2023/12/15 08:50:42;;;;;;;75.97;20.40;;;;;;;3.60;100.00;102743.09;7395094;19;20943;-40
2023/12/15 08:53:12;;;;;;;70.23;20.37;;;;;;;3.65;100.00;102749.59;7374894;19;20431;-41
2023/12/15 08:55:44;;;;;;;70.20;20.43;;;;;;;3.65;100.00;102755.59;7395437;19;20919;-41
2023/12/15 08:58:16;;;;;;;74.00;18.00;;;;;;;3.65;100.00;102765.78;7375565;19;20510;-40
2023/12/15 09:00:45;;;;;;;77.03;21.83;;;;;;;3.71;100.00;102769.72;7395910;19;20411;-41
2023/12/15 09:03:15;;;;;;;67.50;20.57;;;;;;;3.71;100.00;102797.81;7369864;19;20432;-40
2023/12/15 09:05:44;;;;;;;44.77;15.13;;;;;;;3.70;100.00;102813.88;7394167;19;20403;-40
2023/12/15 09:08:34;;;;;;;52.73;18.30;;;;;;;3.75;100.00;102828.91;7371990;19;20447;-39
2023/12/15 09:11:07;;;;;;;65.57;19.30;;;;;;;3.78;100.00;102864.09;7393071;19;20993;-40
2023/12/15 09:13:37;;;;;;;63.40;18.87;;;;;;;3.80;100.00;102875.38;7370694;19;20435;-39
2023/12/15 09:16:07;;;;;;;114.17;34.87;;;;;;;3.89;100.00;102893.28;7397623;19;20937;-39
2023/12/15 09:18:36;;;;;;;71.00;23.27;;;;;;;3.91;100.00;102908.03;7373039;19;20424;-40
2023/12/15 09:21:07;;;;;;;48.13;16.57;;;;;;;3.92;100.00;102925.19;7395209;19;20435;-41
2023/12/15 09:23:37;;;;;;;75.33;27.07;;;;;;;4.01;100.00;102931.97;7370359;19;21014;-40
2023/12/15 09:26:09;;;;;;;70.27;23.30;;;;;;;4.01;100.00;102940.53;7395095;19;20420;-41
2023/12/15 09:28:39;;;;;;;53.67;16.87;;;;;;;4.03;100.00;102949.28;7373014;19;20420;-40
2023/12/15 09:31:08;;;;;;;54.27;19.73;;;;;;;4.03;100.00;102949.28;7394875;19;20427;-39
2023/12/15 09:33:38;;;;;;;73.83;26.93;;;;;;;4.05;100.00;102957.06;7373106;19;20443;-39
2023/12/15 09:36:09;;;;;;;51.00;14.93;;;;;;;4.10;100.00;102975.47;7396106;19;20404;-40
2023/12/15 09:38:39;;;;;;;65.90;18.40;;;;;;;4.09;100.00;102994.97;7373316;19;20828;-41
2023/12/15 09:41:11;;;;;;;56.97;18.87;;;;;;;4.14;100.00;103004.03;7394900;19;20513;-40
2023/12/15 09:43:41;;;;;;;51.70;17.00;;;;;;;4.17;100.00;103009.44;7370350;19;20423;-41
2023/12/15 09:46:11;;;;;;;75.43;20.30;;;;;;;4.19;100.00;103004.50;7393063;19;20432;-41
2023/12/15 09:48:41;;;;;;;73.80;21.60;;;;;;;4.24;100.00;103025.41;7365762;19;20431;-40
2023/12/15 09:51:12;;;;;;;63.53;22.00;;;;;;;4.27;100.00;103030.88;7394591;19;20464;-40
2023/12/15 09:53:42;;;;;;;58.20;18.13;;;;;;;4.29;100.00;103035.41;7371754;19;20448;-41
2023/12/15 09:56:14;;;;;;;77.70;22.27;;;;;;;4.30;100.00;103033.72;7395814;19;20407;-40
2023/12/15 09:58:45;;;;;;;73.87;22.00;;;;;;;4.33;100.00;103036.63;7372548;19;20439;-40
2023/12/15 10:01:15;;;;;;;52.47;18.20;;;;;;;4.36;100.00;103044.59;7394990;19;20519;-40
2023/12/15 10:03:44;;;;;;;77.10;21.57;;;;;;;4.40;100.00;103044.16;7371730;19;20452;-41
2023/12/15 10:06:15;;;;;;;71.87;19.90;;;;;;;4.44;100.00;103043.75;7395154;19;20411;-39
2023/12/15 10:08:47;;;;;;;81.50;21.00;;;;;;;4.53;100.00;103040.31;7372309;19;20983;-40
2023/12/15 10:11:35;;;;;;;90.97;27.60;;;;;;;4.56;100.00;103033.88;7393524;19;20450;-40
2023/12/15 10:14:07;;;;;;;83.03;21.47;;;;;;;4.66;100.00;103033.16;7372498;19;20973;-39
2023/12/15 10:16:37;;;;;;;80.53;20.90;;;;;;;4.65;100.00;103036.47;7394341;19;20436;-40
2023/12/15 10:19:07;;;;;;;76.30;22.20;;;;;;;4.70;100.00;103024.16;7373357;19;20460;-43
2023/12/15 10:21:38;;;;;;;76.00;20.10;;;;;;;4.76;100.00;103034.13;7393267;19;20975;-44
2023/12/15 10:24:20;;;;;;;81.10;22.00;;;;;;;4.81;100.00;103035.47;7371912;19;20495;-39
2023/12/15 10:26:53;;;;;;;76.47;22.03;;;;;;;4.89;100.00;103039.72;7372152;19;20411;-40
2023/12/15 10:29:23;;;;;;;68.67;18.13;;;;;;;4.93;100.00;103039.28;7391456;19;20919;-40
2023/12/15 10:31:53;;;;;;;84.87;23.57;;;;;;;4.95;100.00;103036.88;7371007;19;20451;-40
2023/12/15 10:34:26;;;;;;;73.23;22.77;;;;;;;4.98;100.00;103027.84;7392088;19;20410;-40
2023/12/15 10:36:55;;;;;;;65.20;19.87;;;;;;;4.96;100.00;103024.25;7371524;19;20431;-39
2023/12/15 10:39:26;;;;;;;69.77;19.80;;;;;;;5.02;100.00;103018.84;7391678;19;20431;-41
2023/12/15 10:42:00;;;;;;;61.83;17.40;;;;;;;4.99;100.00;103016.88;7367072;19;20455;-40
2023/12/15 10:44:30;;;;;;;77.13;22.40;;;;;;;5.07;100.00;103006.53;7391237;19;20420;-41
2023/12/15 10:47:02;;;;;;;66.83;19.20;;;;;;;5.07;100.00;103009.09;7372006;19;20396;-40
2023/12/15 10:49:32;;;;;;;61.37;17.77;;;;;;;5.09;100.00;103005.00;7391011;19;20435;-40
2023/12/15 10:52:16;;;;;;;63.30;20.20;;;;;;;5.13;100.00;102991.78;7371010;19;20443;-39
2023/12/15 10:54:46;;;;;;;71.53;19.10;;;;;;;5.14;100.00;102998.72;7380857;19;20483;-39
2023/12/15 10:57:18;;;;;;;55.77;18.20;;;;;;;5.17;100.00;102983.63;7362211;19;20438;-39
2023/12/15 10:59:50;;;;;;;55.93;18.07;;;;;;;5.17;100.00;102978.50;7390614;19;20966;-40
2023/12/15 11:02:21;;;;;;;43.60;15.23;;;;;;;5.20;100.00;102978.84;7369712;19;20447;-39
2023/12/15 11:04:51;;;;;;;62.83;17.63;;;;;;;5.22;100.00;102984.09;7391338;19;20408;-39
2023/12/15 11:07:21;;;;;;;61.80;19.40;;;;;;;5.27;100.00;102980.34;7367207;19;20439;-39
2023/12/15 11:09:51;;;;;;;49.87;16.80;;;;;;;5.31;100.00;102968.72;7391620;19;20497;-39
2023/12/15 11:12:22;;;;;;;66.10;17.90;;;;;;;5.35;100.00;102968.31;7366261;19;20443;-40
2023/12/15 11:14:56;;;;;;;59.20;21.37;;;;;;;5.43;100.00;102962.25;7389052;19;20929;-43
2023/12/15 11:17:26;;;;;;;48.60;17.50;;;;;;;5.42;100.00;102955.34;7368868;19;20510;-40
2023/12/15 11:20:02;;;;;;;61.20;15.00;;;;;;;5.48;100.00;102953.38;7390852;19;20486;-41
2023/12/15 11:22:42;;;;;;;51.67;17.10;;;;;;;5.48;100.00;102958.50;7369554;19;20427;-40
2023/12/15 11:25:20;;;;;;;31.37;8.97;;;;;;;5.52;100.00;102950.38;7392281;19;20499;-40